DFW Airport, Texas
Current Conditions -  °F | °C
As of 6:53 PM on Friday 19 Dec 2014 (Local Time) from KDFW Reporting Station
Overcast Overcast  
Wind Chill: 43°   Ceiling: 1300
Heat Index: 48°   Visibility: 9mi
Dew Point: 44°   Wind: 10mph
Humidity: 86%   Direction: 30°NNE
Pressure: 30.18"   Gusts: NA
Location:  32.9°N, 97.03°W
Report Text: KDFW 200053Z 03009KT 9SM BKN013 OVC019 09/07 A3018 RMK AO2 DZE47 SLP218 P0000 T00890067
Loading
Personal Weather Stations






























Interactive Weather Map New forecast layout! Learn more

10-Day Weather Forecast

Advertisements
Track Severe Weather on mobile